createdAt,value
2018-12-14T00:01:27.369Z,68.30
2018-12-14T00:03:59.607Z,67.77
2018-12-14T00:06:31.449Z,65.40
2018-12-14T00:09:03.165Z,63.67
2018-12-14T00:11:32.740Z,64.50
2018-12-14T00:14:02.887Z,63.90
2018-12-14T00:16:34.218Z,62.13
2018-12-14T00:19:03.749Z,60.97
2018-12-14T00:21:33.216Z,60.30
2018-12-14T00:24:02.702Z,61.23
2018-12-14T00:26:32.101Z,59.80
2018-12-14T00:29:01.493Z,60.30
2018-12-14T00:31:44.928Z,57.40
2018-12-14T00:34:16.533Z,59.23
2018-12-14T00:36:47.266Z,58.87
2018-12-14T00:39:17.492Z,57.73
2018-12-14T00:41:52.089Z,56.07
2018-12-14T00:44:21.625Z,55.87
2018-12-14T00:46:51.138Z,56.07
2018-12-14T00:49:20.749Z,54.77
2018-12-14T00:51:50.198Z,54.90
2018-12-14T00:54:19.736Z,55.27
2018-12-14T00:56:49.222Z,53.77
2018-12-14T00:59:18.682Z,51.57
2018-12-14T01:01:48.129Z,52.83
2018-12-14T01:04:17.601Z,52.20
2018-12-14T01:06:47.689Z,52.23
2018-12-14T01:09:21.993Z,50.60
2018-12-14T01:11:51.626Z,51.57
2018-12-14T01:14:22.469Z,50.20
2018-12-14T01:16:51.901Z,49.07
2018-12-14T01:19:21.359Z,47.43
2018-12-14T01:21:50.797Z,47.77
2018-12-14T01:24:21.595Z,49.77
2018-12-14T01:26:51.369Z,48.27
2018-12-14T01:29:22.535Z,47.77
2018-12-14T01:31:52.116Z,47.87
2018-12-14T01:34:21.575Z,46.20
2018-12-14T01:36:51.043Z,46.17
2018-12-14T01:39:20.469Z,46.10
2018-12-14T01:41:49.869Z,44.63
2018-12-14T01:44:19.241Z,44.83
2018-12-14T01:46:48.634Z,43.17
2018-12-14T01:49:18.046Z,44.57
2018-12-14T01:51:47.446Z,43.97
2018-12-14T01:54:16.830Z,43.63
2018-12-14T01:56:46.226Z,43.10
2018-12-14T01:59:15.641Z,42.30
2018-12-14T02:01:45.159Z,40.57
2018-12-14T02:04:14.561Z,40.57
2018-12-14T02:09:18.622Z,41.13
2018-12-14T02:11:48.021Z,40.63
2018-12-14T02:14:17.401Z,40.03
2018-12-14T02:16:46.821Z,39.77
2018-12-14T02:19:16.225Z,39.47
2018-12-14T02:21:45.661Z,37.53
2018-12-14T02:24:16.003Z,38.43
2018-12-14T02:26:45.408Z,37.70
2018-12-14T02:29:14.803Z,37.30
2018-12-14T02:31:44.218Z,37.37
2018-12-14T02:34:13.624Z,37.10
2018-12-14T02:36:43.093Z,37.57
2018-12-14T02:39:12.509Z,36.70
2018-12-14T02:41:41.930Z,35.07
2018-12-14T02:44:11.344Z,35.30
2018-12-14T02:46:40.752Z,36.03
2018-12-14T02:49:10.180Z,35.83
2018-12-14T02:51:39.685Z,33.87
2018-12-14T02:54:09.040Z,33.77
2018-12-14T02:56:38.349Z,35.27
2018-12-14T02:59:07.705Z,34.10
2018-12-14T03:01:37.097Z,33.20
2018-12-14T03:04:06.450Z,32.93
2018-12-14T03:06:35.759Z,32.80
2018-12-14T03:09:06.810Z,31.43
2018-12-14T03:11:36.265Z,32.07
2018-12-14T03:14:05.617Z,32.87
2018-12-14T03:16:34.949Z,32.53
2018-12-14T03:19:04.331Z,31.03
2018-12-14T03:21:33.665Z,30.63
2018-12-14T03:24:05.789Z,30.33
2018-12-14T03:26:35.116Z,29.87
2018-12-14T03:29:04.607Z,31.30
2018-12-14T03:31:33.936Z,30.13
2018-12-14T03:34:03.291Z,29.37
2018-12-14T03:36:32.610Z,29.83
2018-12-14T03:39:01.963Z,29.30
2018-12-14T03:41:32.456Z,29.20
2018-12-14T03:44:01.802Z,29.00
2018-12-14T03:46:31.137Z,28.50
2018-12-14T03:49:00.491Z,27.60
2018-12-14T03:51:29.816Z,29.60
2018-12-14T03:53:59.120Z,30.83
2018-12-14T03:56:28.483Z,31.50
2018-12-14T03:58:57.836Z,34.20
2018-12-14T04:01:27.239Z,38.77
2018-12-14T04:03:56.556Z,40.90
2018-12-14T04:06:25.935Z,39.93
2018-12-14T04:08:57.290Z,39.77
2018-12-14T04:11:26.643Z,38.23
2018-12-14T04:13:55.964Z,42.83
2018-12-14T04:16:25.400Z,53.02
2018-12-14T04:18:54.736Z,48.77
2018-12-14T04:21:24.103Z,46.73
2018-12-14T04:23:53.411Z,48.53
2018-12-14T04:26:22.762Z,48.63
2018-12-14T04:28:52.081Z,47.80
2018-12-14T04:31:21.444Z,47.47
2018-12-14T04:33:50.768Z,48.20
2018-12-14T04:36:20.119Z,47.37
2018-12-14T04:38:51.476Z,47.13
2018-12-14T04:41:20.821Z,46.27
2018-12-14T04:43:50.129Z,46.23
2018-12-14T04:46:19.483Z,47.63
2018-12-14T04:48:49.260Z,45.90
2018-12-14T04:51:18.661Z,44.40
2018-12-14T04:53:47.985Z,46.00
2018-12-14T04:56:17.334Z,45.53
2018-12-14T04:58:46.721Z,43.60
2018-12-14T05:01:16.060Z,44.30
2018-12-14T05:03:45.379Z,42.30
2018-12-14T05:06:14.704Z,42.37
2018-12-14T05:08:44.122Z,42.47
2018-12-14T05:11:13.471Z,41.77
2018-12-14T05:13:42.808Z,41.33
2018-12-14T05:16:13.152Z,42.00
2018-12-14T05:18:42.508Z,40.63
2018-12-14T05:21:11.848Z,41.07
2018-12-14T05:23:41.175Z,40.17
2018-12-14T05:26:10.536Z,39.77
2018-12-14T05:28:39.869Z,39.80
2018-12-14T05:31:09.209Z,38.10
2018-12-14T05:33:38.571Z,37.83
2018-12-14T05:36:07.907Z,38.30
2018-12-14T05:38:37.256Z,37.40
2018-12-14T05:41:06.601Z,37.50
2018-12-14T05:43:35.942Z,37.30
2018-12-14T05:46:05.259Z,37.63
2018-12-14T05:48:35.640Z,40.00
2018-12-14T05:51:04.967Z,38.50
2018-12-14T05:53:34.323Z,36.57
2018-12-14T05:56:03.643Z,36.20
2018-12-14T05:58:33.010Z,35.40
2018-12-14T06:01:02.447Z,37.57
2018-12-14T06:03:31.827Z,37.77
2018-12-14T06:06:01.243Z,38.30
2018-12-14T06:08:30.583Z,38.97
2018-12-14T06:10:59.944Z,50.03
2018-12-14T06:13:29.255Z,50.67
2018-12-14T06:15:58.644Z,59.50
2018-12-14T06:18:27.976Z,60.53
2018-12-14T06:20:57.323Z,57.47
2018-12-14T06:23:26.643Z,57.90
2018-12-14T06:25:57.016Z,59.37
2018-12-14T06:28:26.435Z,59.70
2018-12-14T06:30:55.795Z,57.83
2018-12-14T06:33:25.132Z,58.67
2018-12-14T06:35:54.480Z,58.40
2018-12-14T06:38:23.836Z,58.80
2018-12-14T06:40:53.246Z,57.77
2018-12-14T06:43:22.731Z,58.37
2018-12-14T06:45:52.071Z,59.87
2018-12-14T06:48:21.401Z,58.67
2018-12-14T06:50:51.182Z,59.53
2018-12-14T06:53:20.565Z,58.27
2018-12-14T06:55:49.940Z,57.77
2018-12-14T06:58:19.336Z,56.87
2018-12-14T07:00:48.729Z,57.27
2018-12-14T07:03:18.155Z,57.00
2018-12-14T07:05:47.496Z,57.67
2018-12-14T07:08:16.856Z,54.97
2018-12-14T07:10:46.195Z,56.00
2018-12-14T07:13:21.722Z,56.70
2018-12-14T07:15:46.909Z,54.93
2018-12-14T07:18:16.279Z,55.47
2018-12-14T07:20:45.639Z,55.97
2018-12-14T07:23:14.996Z,54.83
2018-12-14T07:25:44.350Z,54.17
2018-12-14T07:28:13.730Z,54.63
2018-12-14T07:30:43.059Z,53.60
2018-12-14T07:33:12.447Z,53.67
2018-12-14T07:35:42.285Z,53.27
2018-12-14T07:38:11.875Z,52.50
2018-12-14T07:40:41.311Z,52.80
2018-12-14T07:43:11.044Z,50.90
2018-12-14T07:45:40.365Z,52.40
2018-12-14T07:48:09.724Z,51.53
2018-12-14T07:50:39.063Z,51.80
2018-12-14T07:53:09.225Z,51.63
2018-12-14T07:55:38.759Z,49.77
2018-12-14T07:58:08.111Z,49.03
2018-12-14T08:00:37.452Z,49.37
2018-12-14T08:03:07.846Z,49.73
2018-12-14T08:05:37.172Z,48.77
2018-12-14T08:08:06.524Z,47.33
2018-12-14T08:10:35.856Z,48.57
2018-12-14T08:13:05.326Z,47.13
2018-12-14T08:15:34.816Z,46.57
2018-12-14T08:18:04.168Z,47.17
2018-12-14T08:20:33.501Z,46.90
2018-12-14T08:23:02.828Z,46.87
2018-12-14T08:25:32.152Z,44.00
2018-12-14T08:28:02.061Z,44.97
2018-12-14T08:30:31.453Z,45.23
2018-12-14T08:33:00.785Z,45.17
2018-12-14T08:35:30.188Z,44.03
2018-12-14T08:37:59.527Z,44.60
2018-12-14T08:40:28.892Z,42.27
2018-12-14T08:43:04.832Z,42.83
2018-12-14T08:45:34.240Z,41.80
2018-12-14T08:48:04.103Z,42.67
2018-12-14T08:50:33.544Z,41.37
2018-12-14T08:53:03.316Z,41.77
2018-12-14T08:55:32.679Z,39.97
2018-12-14T08:58:02.008Z,40.87
2018-12-14T09:00:31.368Z,39.20
2018-12-14T09:03:00.680Z,40.50
2018-12-14T09:05:30.673Z,40.10
2018-12-14T09:08:00.131Z,39.10
2018-12-14T09:10:29.479Z,38.13
2018-12-14T09:12:58.808Z,39.17
2018-12-14T09:15:28.660Z,40.03
2018-12-14T09:17:58.019Z,37.83
2018-12-14T09:20:27.352Z,37.87
2018-12-14T09:22:56.939Z,37.10
2018-12-14T09:25:26.297Z,37.00
2018-12-14T09:27:55.632Z,36.37
2018-12-14T09:30:25.603Z,36.77
2018-12-14T09:32:54.988Z,36.13
2018-12-14T09:35:24.381Z,36.00
2018-12-14T09:37:53.747Z,34.60
2018-12-14T09:40:23.088Z,36.17
2018-12-14T09:42:52.425Z,34.77
2018-12-14T09:45:21.751Z,33.57
2018-12-14T09:47:51.172Z,33.90
2018-12-14T09:50:20.568Z,34.50
2018-12-14T09:52:49.896Z,32.27
2018-12-14T09:55:19.320Z,32.90
2018-12-14T09:57:48.648Z,33.87
2018-12-14T10:00:18.009Z,33.57
2018-12-14T10:02:47.347Z,32.00
2018-12-14T10:05:16.723Z,31.87
2018-12-14T10:07:47.024Z,30.27
2018-12-14T10:10:16.651Z,30.40
2018-12-14T10:12:45.987Z,31.47
2018-12-14T10:15:15.363Z,31.37
2018-12-14T10:17:44.759Z,31.37
2018-12-14T10:20:14.100Z,29.90
2018-12-14T10:22:43.419Z,29.87
2018-12-14T10:25:12.816Z,29.97
2018-12-14T10:27:42.189Z,30.00
2018-12-14T10:30:11.541Z,30.40
2018-12-14T10:32:40.868Z,28.87
2018-12-14T10:35:10.592Z,28.67
2018-12-14T10:37:40.250Z,28.37
2018-12-14T10:40:10.941Z,28.60
2018-12-14T10:42:40.291Z,27.97
2018-12-14T10:45:10.015Z,27.93
2018-12-14T10:47:39.421Z,28.27
2018-12-14T10:50:10.008Z,27.03
2018-12-14T10:52:39.419Z,26.33
2018-12-14T10:55:08.912Z,26.60
2018-12-14T10:57:38.676Z,25.73
2018-12-14T11:00:18.812Z,26.80
2018-12-14T11:02:48.164Z,27.03
2018-12-14T11:05:17.590Z,25.80
2018-12-14T11:07:47.054Z,24.70
2018-12-14T11:10:16.502Z,24.60
2018-12-14T11:12:45.823Z,25.13
2018-12-14T11:15:15.204Z,25.17
2018-12-14T11:17:44.529Z,23.93
2018-12-14T11:20:13.914Z,23.00
2018-12-14T11:22:58.152Z,22.43
2018-12-14T11:25:28.707Z,22.73
2018-12-14T11:27:59.021Z,22.87
2018-12-14T11:30:30.830Z,21.43
2018-12-14T11:33:03.559Z,21.00
2018-12-14T11:35:42.060Z,22.37
2018-12-14T11:38:14.308Z,21.30
2018-12-14T11:40:48.443Z,21.37
2018-12-14T11:43:17.985Z,20.10
2018-12-14T11:45:48.192Z,20.73
2018-12-14T11:48:19.032Z,20.47
2018-12-14T11:50:48.581Z,20.67
2018-12-14T11:53:21.180Z,19.93
2018-12-14T11:55:51.487Z,19.27
2018-12-14T11:58:27.751Z,19.47
2018-12-14T12:01:02.176Z,19.50
2018-12-14T12:03:35.468Z,19.50
2018-12-14T12:06:05.101Z,19.70
2018-12-14T12:08:34.504Z,19.20
2018-12-14T12:11:04.135Z,19.40
2018-12-14T12:13:33.769Z,18.77
2018-12-14T12:16:08.479Z,19.13
2018-12-14T12:18:38.065Z,18.47
2018-12-14T12:21:08.508Z,18.50
2018-12-14T12:23:38.531Z,18.83
2018-12-14T12:26:07.934Z,17.33
2018-12-14T12:28:37.304Z,19.30
2018-12-14T12:31:06.651Z,18.83
2018-12-14T12:33:35.996Z,18.30
2018-12-14T12:36:05.408Z,18.07
2018-12-14T12:38:38.125Z,17.67
2018-12-14T12:41:06.140Z,16.37
2018-12-14T12:43:35.500Z,16.00
2018-12-14T12:46:04.840Z,15.93
2018-12-14T12:48:34.568Z,16.17
2018-12-14T12:51:03.896Z,16.87
2018-12-14T12:53:33.279Z,16.13
2018-12-14T12:56:03.035Z,15.13
2018-12-14T12:58:32.420Z,14.50
2018-12-14T13:01:01.790Z,15.70
2018-12-14T13:03:33.374Z,15.43
2018-12-14T13:06:02.972Z,14.60
2018-12-14T13:08:32.319Z,14.80
2018-12-14T13:11:01.665Z,14.83
2018-12-14T13:13:30.984Z,13.97
2018-12-14T13:16:00.313Z,13.73
2018-12-14T13:18:29.664Z,14.07
2018-12-14T13:20:59.133Z,13.47
2018-12-14T13:23:28.455Z,12.37
2018-12-14T13:25:57.818Z,13.50
2018-12-14T13:28:27.510Z,13.33
2018-12-14T13:30:56.867Z,13.33
2018-12-14T13:33:26.297Z,13.03
2018-12-14T13:35:55.800Z,13.40
2018-12-14T13:38:25.159Z,12.90
2018-12-14T13:40:54.526Z,12.70
2018-12-14T13:43:23.879Z,12.57
2018-12-14T13:45:53.232Z,12.27
2018-12-14T13:48:22.571Z,12.37
2018-12-14T13:50:58.668Z,13.23
2018-12-14T13:53:27.995Z,12.80
2018-12-14T13:55:57.436Z,12.80
2018-12-14T13:58:26.795Z,12.23
2018-12-14T14:00:56.145Z,11.90
2018-12-14T14:03:25.525Z,11.63
2018-12-14T14:05:54.851Z,11.50
2018-12-14T14:08:24.195Z,11.43
2018-12-14T14:10:53.528Z,12.43
2018-12-14T14:13:22.855Z,11.70
2018-12-14T14:15:52.388Z,11.27
2018-12-14T14:18:21.836Z,11.50
2018-12-14T14:20:51.231Z,11.00
2018-12-14T14:23:20.565Z,11.63
2018-12-14T14:25:50.074Z,10.87
2018-12-14T14:28:19.400Z,11.37
2018-12-14T14:30:48.723Z,10.80
2018-12-14T14:33:18.052Z,10.30
2018-12-14T14:35:47.447Z,10.93
2018-12-14T14:38:16.774Z,10.17
2018-12-14T14:40:46.108Z,10.67
2018-12-14T14:43:15.423Z,10.57
2018-12-14T14:45:44.759Z,11.43
2018-12-14T14:48:14.091Z,10.37
2018-12-14T14:50:43.428Z,10.63
2018-12-14T14:53:12.760Z,10.40
2018-12-14T14:55:42.249Z,10.00
2018-12-14T14:58:11.588Z,10.33
2018-12-14T15:00:40.915Z,10.37
2018-12-14T15:03:10.714Z,9.77
2018-12-14T15:05:40.048Z,10.77
2018-12-14T15:08:10.436Z,10.63
2018-12-14T15:10:39.783Z,10.30
2018-12-14T15:13:09.113Z,10.57
2018-12-14T15:15:38.478Z,10.53
2018-12-14T15:18:07.843Z,10.17
2018-12-14T15:20:37.241Z,10.70
2018-12-14T15:23:06.596Z,9.83
2018-12-14T15:25:35.986Z,10.83
2018-12-14T15:28:05.382Z,9.27
2018-12-14T15:30:34.744Z,10.17
2018-12-14T15:33:04.057Z,10.70
2018-12-14T15:35:33.399Z,9.50
2018-12-14T15:38:02.720Z,10.00
2018-12-14T15:40:32.082Z,9.50
2018-12-14T15:43:01.415Z,9.63
2018-12-14T15:45:30.803Z,10.37
2018-12-14T15:48:00.128Z,10.17
2018-12-14T15:50:29.481Z,10.30
2018-12-14T15:52:58.823Z,9.87
2018-12-14T15:55:28.160Z,9.83
2018-12-14T15:57:57.484Z,9.83
2018-12-14T16:00:27.266Z,11.87
2018-12-14T16:02:56.614Z,20.50
2018-12-14T16:05:26.132Z,20.83
2018-12-14T16:07:55.460Z,33.57
2018-12-14T16:10:24.784Z,44.57
2018-12-14T16:12:54.123Z,47.00
2018-12-14T16:15:23.473Z,46.03
2018-12-14T16:17:54.016Z,45.70
2018-12-14T16:20:23.397Z,45.57
2018-12-14T16:22:52.734Z,39.63
2018-12-14T16:25:22.220Z,36.87
2018-12-14T16:27:51.588Z,38.77
2018-12-14T16:30:20.948Z,38.27
2018-12-14T16:32:50.302Z,37.70
2018-12-14T16:35:19.641Z,37.00
2018-12-14T16:37:48.991Z,35.60
2018-12-14T16:40:18.320Z,35.13
2018-12-14T16:42:47.677Z,35.53
2018-12-14T16:45:17.052Z,34.57
2018-12-14T16:47:47.431Z,35.10
2018-12-14T16:50:16.796Z,34.20
2018-12-14T16:52:47.605Z,42.20
2018-12-14T16:55:17.139Z,55.93
2018-12-14T16:57:46.534Z,52.03
2018-12-14T17:00:15.888Z,52.07
2018-12-14T17:02:45.235Z,51.63
2018-12-14T17:05:15.405Z,50.83
2018-12-14T17:07:44.876Z,49.33
2018-12-14T17:10:14.219Z,49.87
2018-12-14T17:12:43.585Z,47.23
2018-12-14T17:15:12.907Z,48.00
2018-12-14T17:17:42.268Z,45.57
2018-12-14T17:20:11.603Z,45.37
2018-12-14T17:22:40.929Z,44.20
2018-12-14T17:25:10.271Z,44.27
2018-12-14T17:27:39.607Z,43.60
2018-12-14T17:30:09.483Z,42.43
2018-12-14T17:32:38.842Z,41.73
2018-12-14T17:35:09.743Z,42.00
2018-12-14T17:37:39.107Z,39.00
2018-12-14T17:40:08.508Z,39.30
2018-12-14T17:42:39.895Z,38.17
2018-12-14T17:45:09.254Z,39.60
2018-12-14T17:47:38.704Z,38.07
2018-12-14T17:50:08.100Z,36.37
2018-12-14T17:52:39.073Z,37.97
2018-12-14T17:55:08.877Z,38.80
2018-12-14T17:57:38.868Z,38.30
2018-12-14T18:00:09.366Z,37.53
2018-12-14T18:02:38.807Z,39.93
2018-12-14T18:05:08.324Z,38.53
2018-12-14T18:07:37.668Z,40.77
2018-12-14T18:10:07.025Z,39.93
2018-12-14T18:12:36.348Z,40.27
2018-12-14T18:15:05.968Z,41.40
2018-12-14T18:17:35.288Z,44.20
2018-12-14T18:20:05.096Z,42.90
2018-12-14T18:22:34.487Z,59.43
2018-12-14T18:25:04.080Z,75.17
2018-12-14T18:27:33.539Z,72.80
2018-12-14T18:30:02.938Z,70.87
2018-12-14T18:32:32.304Z,71.47
2018-12-14T18:35:02.548Z,68.10
2018-12-14T18:37:31.921Z,72.60
2018-12-14T18:40:01.313Z,69.27
2018-12-14T18:42:30.667Z,67.83
2018-12-14T18:45:00.058Z,69.23
2018-12-14T18:47:30.139Z,69.83
2018-12-14T18:49:59.483Z,72.53
2018-12-14T18:52:28.911Z,73.63
2018-12-14T18:54:58.263Z,71.47
2018-12-14T18:57:27.670Z,71.03
2018-12-14T18:59:57.076Z,70.90
2018-12-14T19:02:27.632Z,71.27
2018-12-14T19:04:57.999Z,70.20
2018-12-14T19:07:27.394Z,69.93
2018-12-14T19:09:57.986Z,70.77
2018-12-14T19:12:27.638Z,69.03
2018-12-14T19:14:57.176Z,69.37
2018-12-14T19:17:26.577Z,70.33
2018-12-14T19:19:55.920Z,70.13
2018-12-14T19:22:25.284Z,70.77
2018-12-14T19:24:54.676Z,69.97
2018-12-14T19:27:24.104Z,70.57
2018-12-14T19:29:53.547Z,72.63
2018-12-14T19:32:22.889Z,71.23
2018-12-14T19:34:52.256Z,75.47
2018-12-14T19:37:21.608Z,76.67
2018-12-14T19:39:51.313Z,79.20
2018-12-14T19:42:20.955Z,80.90
2018-12-14T19:44:50.776Z,82.63
2018-12-14T19:47:20.623Z,79.90
2018-12-14T19:49:50.107Z,82.87
2018-12-14T19:52:19.776Z,86.07
2018-12-14T19:54:49.287Z,81.73
2018-12-14T19:57:18.984Z,85.97
2018-12-14T19:59:48.396Z,92.90
2018-12-14T20:02:17.816Z,89.47
2018-12-14T20:04:47.829Z,91.90
2018-12-14T20:07:17.914Z,88.20
2018-12-14T20:09:47.445Z,90.33
2018-12-14T20:12:16.829Z,89.17
2018-12-14T20:14:46.342Z,93.07
2018-12-14T20:17:15.844Z,94.80
2018-12-14T20:19:46.996Z,94.17
2018-12-14T20:22:17.719Z,97.63
2018-12-14T20:24:48.669Z,96.57
2018-12-14T20:27:18.296Z,100.60
2018-12-14T20:29:47.860Z,104.00
2018-12-14T20:32:17.383Z,122.80
2018-12-14T20:34:47.419Z,143.27
2018-12-14T20:37:17.406Z,141.63
2018-12-14T20:39:47.316Z,135.67
2018-12-14T20:42:16.680Z,124.50
2018-12-14T20:44:46.029Z,123.77
2018-12-14T20:47:15.390Z,125.10
2018-12-14T20:49:44.980Z,129.97
2018-12-14T20:52:14.324Z,130.30
2018-12-14T20:54:43.652Z,131.77
2018-12-14T20:57:13.032Z,126.73
2018-12-14T20:59:42.406Z,126.77
2018-12-14T21:02:11.764Z,128.83
2018-12-14T21:04:41.100Z,125.53
2018-12-14T21:07:10.508Z,121.37
2018-12-14T21:09:39.872Z,131.60
2018-12-14T21:12:09.205Z,121.93
2018-12-14T21:14:38.924Z,122.77
2018-12-14T21:17:08.443Z,119.37
2018-12-14T21:19:37.832Z,118.10
2018-12-14T21:22:10.560Z,114.10
2018-12-14T21:24:40.205Z,113.17
2018-12-14T21:27:09.770Z,114.23
2018-12-14T21:29:39.203Z,112.73
2018-12-14T21:32:08.568Z,109.50
2018-12-14T21:34:37.931Z,109.43
2018-12-14T21:37:07.300Z,107.70
2018-12-14T21:39:36.680Z,107.90
2018-12-14T21:42:06.064Z,110.20
2018-12-14T21:44:35.439Z,108.57
2018-12-14T21:47:04.809Z,108.47
2018-12-14T21:49:34.164Z,108.23
2018-12-14T21:52:03.520Z,110.17
2018-12-14T21:54:33.835Z,109.73
2018-12-14T21:57:03.184Z,112.63
2018-12-14T21:59:32.571Z,112.33
2018-12-14T22:02:01.921Z,111.17
2018-12-14T22:04:31.287Z,111.23
2018-12-14T22:07:00.641Z,111.10
2018-12-14T22:09:30.013Z,110.63
2018-12-14T22:11:59.379Z,108.20
2018-12-14T22:14:28.743Z,110.97
2018-12-14T22:16:58.088Z,109.63
2018-12-14T22:19:27.436Z,108.53
2018-12-14T22:21:56.771Z,106.53
2018-12-14T22:24:26.125Z,106.53
2018-12-14T22:26:55.455Z,104.73
2018-12-14T22:29:24.830Z,108.10
2018-12-14T22:31:54.163Z,107.57
2018-12-14T22:34:23.536Z,105.50
2018-12-14T22:36:52.905Z,102.87
2018-12-14T22:39:23.951Z,101.07
2018-12-14T22:41:53.356Z,101.67
2018-12-14T22:44:23.076Z,100.43
2018-12-14T22:46:52.450Z,102.40
2018-12-14T22:49:21.820Z,99.27
2018-12-14T22:51:51.212Z,98.77
2018-12-14T22:54:21.006Z,98.17
2018-12-14T22:56:50.365Z,97.50
2018-12-14T22:59:19.708Z,93.40
2018-12-14T23:01:49.059Z,95.30
2018-12-14T23:04:18.400Z,94.73
2018-12-14T23:06:47.838Z,93.10
2018-12-14T23:09:17.236Z,92.20
2018-12-14T23:11:46.620Z,91.63
2018-12-14T23:14:16.070Z,91.53
2018-12-14T23:16:52.014Z,91.13
2018-12-14T23:19:16.896Z,90.30
2018-12-14T23:21:46.270Z,89.47
2018-12-14T23:24:22.037Z,88.77
2018-12-14T23:26:51.721Z,86.17
2018-12-14T23:29:21.084Z,86.07
2018-12-14T23:31:50.464Z,84.17
2018-12-14T23:34:19.835Z,84.63
2018-12-14T23:36:50.454Z,81.47
2018-12-14T23:39:19.835Z,83.97
2018-12-14T23:41:49.288Z,81.73
2018-12-14T23:44:18.668Z,80.13
2018-12-14T23:46:48.080Z,79.93
2018-12-14T23:49:17.413Z,75.33
2018-12-14T23:51:46.748Z,76.77
2018-12-14T23:54:16.087Z,77.47
2018-12-14T23:56:45.431Z,78.03
2018-12-14T23:59:14.753Z,76.43
